Time;durP1;ratioP1;P1;durP2;ratioP2;P2;SDS_P1;SDS_P2;PMS_P1;PMS_P2;Temp;Humidity;BMP_temperature;BMP_pressure;BME280_temperature;BME280_humidity;BME280_pressure;Samples;Min_cycle;Max_cycle;Signal;HPM_P1;HPM_P2
2022/08/20 00:00:14;;;;;;;6.70;6.00;;;;;;;;;;4987368;28;20188;-60
2022/08/20 00:02:48;;;;;;;6.03;5.53;;;;;;;;;;4989956;28;20262;-60
2022/08/20 00:05:15;;;;;;;6.63;6.00;;;;;;;;;;4988297;28;20206;-60
2022/08/20 00:07:41;;;;;;;5.47;5.07;;;;;;;;;;4986604;28;20183;-60
2022/08/20 00:10:08;;;;;;;6.20;5.70;;;;;;;;;;4970229;28;20257;-60
2022/08/20 00:12:35;;;;;;;6.10;5.43;;;;;;;;;;4984839;28;20184;-60
2022/08/20 00:15:02;;;;;;;6.23;5.73;;;;;;;;;;4987943;28;20975;-60
2022/08/20 00:17:38;;;;;;;6.30;5.80;;;;;;;;;;4985525;28;20241;-60
2022/08/20 00:20:07;;;;;;;5.90;5.40;;;;;;;;;;4957528;28;20444;-60
2022/08/20 00:22:33;;;;;;;5.87;5.27;;;;;;;;;;4983287;28;20185;-60
2022/08/20 00:24:59;;;;;;;6.87;6.17;;;;;;;;;;4987136;28;20206;-61
2022/08/20 00:27:25;;;;;;;6.33;5.30;;;;;;;;;;4986372;28;20245;-60
2022/08/20 00:29:51;;;;;;;6.07;5.53;;;;;;;;;;4969512;28;20230;-61
2022/08/20 00:32:18;;;;;;;6.60;6.03;;;;;;;;;;4968161;28;20624;-62
2022/08/20 00:34:44;;;;;;;6.20;5.60;;;;;;;;;;4987397;28;20677;-62
2022/08/20 00:37:10;;;;;;;7.17;6.47;;;;;;;;;;4968654;28;20618;-61
2022/08/20 00:39:40;;;;;;;5.37;4.90;;;;;;;;;;4986729;28;20197;-61
2022/08/20 00:42:06;;;;;;;6.13;5.47;;;;;;;;;;4969663;28;20223;-61
2022/08/20 00:44:32;;;;;;;5.47;5.07;;;;;;;;;;4968668;28;20206;-60
2022/08/20 00:46:58;;;;;;;5.40;5.00;;;;;;;;;;4986682;28;20220;-60
2022/08/20 00:49:27;;;;;;;6.17;5.60;;;;;;;;;;4986241;28;20634;-60
2022/08/20 00:52:20;;;;;;;5.80;5.30;;;;;;;;;;4981952;28;20185;-60
2022/08/20 00:54:51;;;;;;;4.83;4.43;;;;;;;;;;4979904;28;20662;-60
2022/08/20 00:57:21;;;;;;;5.67;5.17;;;;;;;;;;4985830;28;20186;-60
2022/08/20 00:59:49;;;;;;;4.47;4.07;;;;;;;;;;4944883;28;20187;-60
2022/08/20 01:02:16;;;;;;;5.67;5.20;;;;;;;;;;4968715;28;20183;-60
2022/08/20 01:04:53;;;;;;;5.40;4.90;;;;;;;;;;4985605;28;20222;-60
2022/08/20 01:07:22;;;;;;;5.27;4.87;;;;;;;;;;4966904;28;20696;-60
2022/08/20 01:09:49;;;;;;;5.80;5.30;;;;;;;;;;4968456;28;20238;-60
2022/08/20 01:12:18;;;;;;;5.43;5.00;;;;;;;;;;4969080;28;20176;-60
2022/08/20 01:14:46;;;;;;;7.23;5.80;;;;;;;;;;4968318;28;20588;-61
2022/08/20 01:17:16;;;;;;;5.03;4.60;;;;;;;;;;4985552;28;20610;-61
2022/08/20 01:20:11;;;;;;;5.00;4.60;;;;;;;;;;4986718;28;20199;-61
2022/08/20 01:25:38;;;;;;;5.50;5.10;;;;;;;;;;4992132;28;20190;-60
2022/08/20 01:28:04;;;;;;;5.53;4.40;;;;;;;;;;4989836;28;20696;-59
2022/08/20 01:30:37;;;;;;;5.27;4.77;;;;;;;;;;4989977;28;20178;-61
2022/08/20 01:33:05;;;;;;;4.50;4.20;;;;;;;;;;4972133;28;20306;-60
2022/08/20 01:35:34;;;;;;;4.77;4.47;;;;;;;;;;4989921;28;20186;-60
2022/08/20 01:38:00;;;;;;;5.80;5.30;;;;;;;;;;4988663;28;20546;-60
2022/08/20 01:40:45;;;;;;;5.00;4.60;;;;;;;;;;4990458;28;20175;-60
2022/08/20 01:43:12;;;;;;;4.70;4.30;;;;;;;;;;4990624;28;20721;-61
2022/08/20 01:45:38;;;;;;;5.27;4.80;;;;;;;;;;4986053;28;20190;-59
2022/08/20 01:48:05;;;;;;;5.07;4.63;;;;;;;;;;4987043;28;20270;-61
2022/08/20 01:50:32;;;;;;;5.07;4.67;;;;;;;;;;4990132;28;20198;-60
2022/08/20 01:53:32;;;;;;;5.10;4.60;;;;;;;;;;4988329;28;20191;-61
2022/08/20 01:55:58;;;;;;;5.07;4.57;;;;;;;;;;4942206;28;20207;-61
2022/08/20 01:58:28;;;;;;;4.70;4.40;;;;;;;;;;4983712;28;20187;-60
2022/08/20 02:00:54;;;;;;;4.93;4.63;;;;;;;;;;4984895;28;20231;-60
2022/08/20 02:03:20;;;;;;;12.03;11.23;;;;;;;;;;4975992;28;20281;-61
2022/08/20 02:05:46;;;;;;;5.37;4.87;;;;;;;;;;4971839;28;20290;-60
2022/08/20 02:08:12;;;;;;;4.10;3.80;;;;;;;;;;4988466;28;20230;-60
2022/08/20 02:10:39;;;;;;;5.17;4.77;;;;;;;;;;4990554;28;20246;-60
2022/08/20 02:13:07;;;;;;;5.43;5.03;;;;;;;;;;4989059;28;20187;-60
2022/08/20 02:15:33;;;;;;;5.03;4.63;;;;;;;;;;4986629;28;20182;-60
2022/08/20 02:18:02;;;;;;;4.87;4.37;;;;;;;;;;4990126;28;20183;-59
2022/08/20 02:20:30;;;;;;;6.03;5.03;;;;;;;;;;4971365;28;20761;-60
2022/08/20 02:22:58;;;;;;;6.00;5.40;;;;;;;;;;4972153;28;20584;-60
2022/08/20 02:25:25;;;;;;;5.10;4.60;;;;;;;;;;4990555;28;20311;-59
2022/08/20 02:27:52;;;;;;;5.60;5.13;;;;;;;;;;4989595;28;20167;-60
2022/08/20 02:30:22;;;;;;;4.90;4.60;;;;;;;;;;4972064;28;20287;-59
2022/08/20 02:32:48;;;;;;;5.23;4.83;;;;;;;;;;4988981;28;20585;-60
2022/08/20 02:35:15;;;;;;;5.53;5.03;;;;;;;;;;4971601;28;20194;-58
2022/08/20 02:37:42;;;;;;;4.87;4.47;;;;;;;;;;4988392;28;20195;-60
2022/08/20 02:40:10;;;;;;;4.93;4.60;;;;;;;;;;4990240;28;20188;-60
2022/08/20 02:42:37;;;;;;;5.10;4.70;;;;;;;;;;4989933;28;20230;-60
2022/08/20 02:45:05;;;;;;;5.33;4.83;;;;;;;;;;4990162;28;20212;-59
2022/08/20 02:47:31;;;;;;;5.13;4.73;;;;;;;;;;4989644;28;20186;-60
2022/08/20 02:49:58;;;;;;;5.27;4.87;;;;;;;;;;4988855;28;20181;-60
2022/08/20 02:52:24;;;;;;;4.67;4.37;;;;;;;;;;4985564;28;20183;-59
2022/08/20 02:54:51;;;;;;;4.10;3.80;;;;;;;;;;4989582;28;20192;-60
2022/08/20 02:57:19;;;;;;;4.33;4.03;;;;;;;;;;4989070;28;20569;-60
2022/08/20 02:59:45;;;;;;;4.60;4.20;;;;;;;;;;4989253;28;20175;-59
2022/08/20 03:02:12;;;;;;;4.80;4.23;;;;;;;;;;4984918;28;20184;-60
2022/08/20 03:04:38;;;;;;;4.57;4.27;;;;;;;;;;4989027;28;20212;-60
2022/08/20 03:07:11;;;;;;;4.57;4.20;;;;;;;;;;4986366;28;20323;-59
2022/08/20 03:09:38;;;;;;;4.40;4.10;;;;;;;;;;4972907;28;20712;-61
2022/08/20 03:12:06;;;;;;;3.87;3.57;;;;;;;;;;4989062;28;20176;-60
2022/08/20 03:14:32;;;;;;;4.43;4.13;;;;;;;;;;4988161;28;20171;-60
2022/08/20 03:16:58;;;;;;;19.20;18.33;;;;;;;;;;4987417;28;20398;-59
2022/08/20 03:19:24;;;;;;;4.13;3.83;;;;;;;;;;4988343;28;20180;-60
2022/08/20 03:21:51;;;;;;;4.00;3.60;;;;;;;;;;4984173;28;20177;-59
2022/08/20 03:24:17;;;;;;;4.63;4.20;;;;;;;;;;4989319;28;20204;-60
2022/08/20 03:26:43;;;;;;;3.90;3.60;;;;;;;;;;4990622;28;20568;-60
2022/08/20 03:29:09;;;;;;;5.30;4.53;;;;;;;;;;4987048;28;20697;-60
2022/08/20 03:31:35;;;;;;;18.17;17.33;;;;;;;;;;4988256;28;20531;-59
2022/08/20 03:34:01;;;;;;;4.20;3.87;;;;;;;;;;4979569;28;20601;-60
2022/08/20 03:36:28;;;;;;;4.03;3.73;;;;;;;;;;4974553;28;20174;-60
2022/08/20 03:38:54;;;;;;;5.93;5.53;;;;;;;;;;4986112;28;20184;-61
2022/08/20 03:41:21;;;;;;;5.90;4.27;;;;;;;;;;4988996;28;20180;-60
2022/08/20 03:43:47;;;;;;;5.50;5.00;;;;;;;;;;4989657;28;20593;-59
2022/08/20 03:46:13;;;;;;;4.70;4.37;;;;;;;;;;4986980;28;20195;-61
2022/08/20 03:48:39;;;;;;;4.43;3.77;;;;;;;;;;4987668;28;20554;-61
2022/08/20 03:51:05;;;;;;;4.40;4.00;;;;;;;;;;4969248;28;20183;-60
2022/08/20 03:53:31;;;;;;;4.33;3.90;;;;;;;;;;4987975;28;20191;-61
2022/08/20 03:56:03;;;;;;;3.90;3.60;;;;;;;;;;4989385;28;20444;-61
2022/08/20 03:58:30;;;;;;;4.10;3.80;;;;;;;;;;4987399;28;20187;-61
2022/08/20 04:00:56;;;;;;;4.17;3.70;;;;;;;;;;4986706;28;20194;-61
2022/08/20 04:03:23;;;;;;;6.97;6.40;;;;;;;;;;4989391;28;20199;-61
2022/08/20 04:05:49;;;;;;;3.30;3.10;;;;;;;;;;4987253;28;20226;-61
2022/08/20 04:08:17;;;;;;;3.57;3.37;;;;;;;;;;4988989;28;20623;-61
2022/08/20 04:10:45;;;;;;;3.60;3.40;;;;;;;;;;4987995;28;20179;-62
2022/08/20 04:13:12;;;;;;;3.90;3.60;;;;;;;;;;4983845;28;20569;-61
2022/08/20 04:15:39;;;;;;;3.73;3.43;;;;;;;;;;4984643;28;20522;-62
2022/08/20 04:18:07;;;;;;;3.77;3.47;;;;;;;;;;4997495;28;20734;-62
2022/08/20 04:20:33;;;;;;;3.67;3.43;;;;;;;;;;4987266;28;20179;-60
2022/08/20 04:23:00;;;;;;;4.17;3.77;;;;;;;;;;4986810;28;20219;-62
2022/08/20 04:25:27;;;;;;;4.77;4.40;;;;;;;;;;4977125;28;20188;-60
2022/08/20 04:27:54;;;;;;;4.37;4.07;;;;;;;;;;4988420;28;20176;-62
2022/08/20 04:30:23;;;;;;;3.67;3.47;;;;;;;;;;4985461;28;20175;-61
2022/08/20 04:32:49;;;;;;;3.37;3.17;;;;;;;;;;4983741;28;20178;-62
2022/08/20 04:35:16;;;;;;;4.30;4.00;;;;;;;;;;4994915;28;20179;-61
2022/08/20 04:37:43;;;;;;;3.97;3.67;;;;;;;;;;4967562;28;20183;-61
2022/08/20 04:42:57;;;;;;;3.17;2.97;;;;;;;;;;4977519;28;20273;-62
2022/08/20 04:45:23;;;;;;;3.20;3.00;;;;;;;;;;4984134;28;20220;-62
2022/08/20 04:47:50;;;;;;;3.57;3.27;;;;;;;;;;4987804;28;20171;-62
2022/08/20 04:50:18;;;;;;;4.07;3.70;;;;;;;;;;4987104;28;20257;-61
2022/08/20 04:52:44;;;;;;;4.53;4.17;;;;;;;;;;4990982;28;20178;-62
2022/08/20 04:55:10;;;;;;;3.67;3.37;;;;;;;;;;4986130;28;20283;-62
2022/08/20 04:57:37;;;;;;;3.47;3.17;;;;;;;;;;4986266;28;20573;-61
2022/08/20 05:00:13;;;;;;;4.07;3.80;;;;;;;;;;4985174;28;20654;-62
2022/08/20 05:02:39;;;;;;;4.03;3.67;;;;;;;;;;4975586;28;20170;-62
2022/08/20 05:05:07;;;;;;;3.80;3.50;;;;;;;;;;4962224;28;20230;-61
2022/08/20 05:07:40;;;;;;;3.57;3.27;;;;;;;;;;4969588;28;20182;-61
2022/08/20 05:10:08;;;;;;;3.40;3.10;;;;;;;;;;5002934;28;20208;-61
2022/08/20 05:12:34;;;;;;;4.90;4.50;;;;;;;;;;4982295;28;20758;-62
2022/08/20 05:15:00;;;;;;;3.97;3.50;;;;;;;;;;4980719;28;20186;-62
2022/08/20 05:17:27;;;;;;;3.80;3.50;;;;;;;;;;4986397;28;20218;-61
2022/08/20 05:19:54;;;;;;;4.20;3.90;;;;;;;;;;4970176;28;20276;-61
2022/08/20 05:22:20;;;;;;;4.73;4.33;;;;;;;;;;4984499;28;20182;-61
2022/08/20 05:24:46;;;;;;;4.40;4.10;;;;;;;;;;4986866;28;20673;-61
2022/08/20 05:27:12;;;;;;;3.37;3.17;;;;;;;;;;4988224;28;20185;-60
2022/08/20 05:29:39;;;;;;;4.27;3.87;;;;;;;;;;4969631;28;20273;-61
2022/08/20 05:32:05;;;;;;;4.20;3.90;;;;;;;;;;4984032;28;20645;-62
2022/08/20 05:34:31;;;;;;;4.03;3.63;;;;;;;;;;4969675;28;20260;-62
2022/08/20 05:36:59;;;;;;;4.40;4.00;;;;;;;;;;4987129;28;20175;-61
2022/08/20 05:39:25;;;;;;;4.30;3.93;;;;;;;;;;4968147;28;20260;-62
2022/08/20 05:41:52;;;;;;;4.43;4.03;;;;;;;;;;4969438;28;20797;-60
2022/08/20 05:44:18;;;;;;;4.07;3.87;;;;;;;;;;4971225;28;20349;-63
2022/08/20 05:46:46;;;;;;;4.70;4.40;;;;;;;;;;4968084;28;20645;-61
2022/08/20 05:49:14;;;;;;;4.60;4.20;;;;;;;;;;4951961;28;20186;-61
2022/08/20 05:51:41;;;;;;;4.53;4.13;;;;;;;;;;4987980;28;20593;-61
2022/08/20 05:54:07;;;;;;;4.63;4.20;;;;;;;;;;4969655;28;20201;-60
2022/08/20 05:56:34;;;;;;;4.37;4.07;;;;;;;;;;4969631;28;20198;-61
2022/08/20 05:59:02;;;;;;;5.00;4.60;;;;;;;;;;4968718;28;20193;-61
2022/08/20 06:01:29;;;;;;;4.90;4.27;;;;;;;;;;4995905;28;20204;-61
2022/08/20 06:06:40;;;;;;;5.13;4.73;;;;;;;;;;4987105;28;20280;-61
2022/08/20 06:09:06;;;;;;;5.07;4.67;;;;;;;;;;4965138;28;20636;-61
2022/08/20 06:11:33;;;;;;;4.70;4.30;;;;;;;;;;4990602;28;20675;-62
2022/08/20 06:13:59;;;;;;;4.73;4.33;;;;;;;;;;4988968;28;20173;-61
2022/08/20 06:16:25;;;;;;;5.07;4.57;;;;;;;;;;4971832;28;20682;-61
2022/08/20 06:18:51;;;;;;;4.20;3.90;;;;;;;;;;4989778;28;20204;-62
2022/08/20 06:21:21;;;;;;;4.47;4.17;;;;;;;;;;4984305;28;20339;-62
2022/08/20 06:23:47;;;;;;;5.23;4.83;;;;;;;;;;4986020;28;20288;-62
2022/08/20 06:26:14;;;;;;;5.10;4.70;;;;;;;;;;4977125;28;20182;-61
2022/08/20 06:28:40;;;;;;;4.43;4.13;;;;;;;;;;4968217;28;20230;-62
2022/08/20 06:31:06;;;;;;;4.60;4.20;;;;;;;;;;4985179;28;20177;-60
2022/08/20 06:33:32;;;;;;;4.33;4.03;;;;;;;;;;4994095;28;20188;-61
2022/08/20 06:35:59;;;;;;;4.57;4.17;;;;;;;;;;4990170;28;20655;-61
2022/08/20 06:38:25;;;;;;;5.20;4.80;;;;;;;;;;4969168;28;20549;-61
2022/08/20 06:40:51;;;;;;;5.00;4.50;;;;;;;;;;4986884;28;20307;-61
2022/08/20 06:43:18;;;;;;;5.03;4.63;;;;;;;;;;4986460;28;20240;-60
2022/08/20 06:45:44;;;;;;;4.40;4.10;;;;;;;;;;4986428;28;20644;-61
2022/08/20 06:48:12;;;;;;;5.40;4.90;;;;;;;;;;4995561;28;20182;-61
2022/08/20 06:50:45;;;;;;;5.10;4.60;;;;;;;;;;4989736;28;20217;-59
2022/08/20 06:53:12;;;;;;;5.07;4.17;;;;;;;;;;4986789;28;20167;-60
2022/08/20 06:55:40;;;;;;;4.90;4.40;;;;;;;;;;4985693;28;20191;-60
2022/08/20 06:58:08;;;;;;;5.03;4.63;;;;;;;;;;4989201;28;20176;-60
2022/08/20 07:00:35;;;;;;;4.70;4.40;;;;;;;;;;4987048;28;20198;-60
2022/08/20 07:03:02;;;;;;;5.67;5.10;;;;;;;;;;4970390;28;20527;-60
2022/08/20 07:05:29;;;;;;;5.10;4.70;;;;;;;;;;4989442;28;20799;-59
2022/08/20 07:07:55;;;;;;;6.13;5.53;;;;;;;;;;4993160;28;20181;-61
2022/08/20 07:10:23;;;;;;;6.67;6.07;;;;;;;;;;4989610;28;20178;-59
2022/08/20 07:12:50;;;;;;;7.17;6.57;;;;;;;;;;4965064;28;20188;-60
2022/08/20 07:15:17;;;;;;;7.23;6.70;;;;;;;;;;4970906;28;20557;-61
2022/08/20 07:17:49;;;;;;;8.53;7.77;;;;;;;;;;4970844;28;20584;-59
2022/08/20 07:20:15;;;;;;;7.87;7.17;;;;;;;;;;4979557;28;20181;-60
2022/08/20 07:22:42;;;;;;;8.20;7.53;;;;;;;;;;4982863;28;20698;-60
2022/08/20 07:25:13;;;;;;;8.77;8.07;;;;;;;;;;4968134;28;20203;-60
2022/08/20 07:27:42;;;;;;;9.07;8.27;;;;;;;;;;4989070;28;20188;-61
2022/08/20 07:32:56;;;;;;;9.47;8.50;;;;;;;;;;4984493;28;20298;-60
2022/08/20 07:35:23;;;;;;;19.30;17.50;;;;;;;;;;4989148;28;20172;-59
2022/08/20 07:37:50;;;;;;;20.87;18.83;;;;;;;;;;4967155;28;20193;-58
2022/08/20 07:40:35;;;;;;;23.77;21.33;;;;;;;;;;4980598;28;20234;-57
2022/08/20 07:43:02;;;;;;;24.13;21.63;;;;;;;;;;4988662;28;20436;-58
2022/08/20 07:45:29;;;;;;;25.10;22.80;;;;;;;;;;4951519;28;20263;-58
2022/08/20 07:47:55;;;;;;;26.57;24.07;;;;;;;;;;4986143;28;20179;-59
2022/08/20 07:50:23;;;;;;;26.13;23.63;;;;;;;;;;4988234;28;20222;-59
2022/08/20 07:52:52;;;;;;;24.20;21.90;;;;;;;;;;4979744;28;20192;-59
2022/08/20 07:55:20;;;;;;;24.80;22.40;;;;;;;;;;4989713;28;20198;-60
2022/08/20 07:57:48;;;;;;;27.77;24.88;;;;;;;;;;4967549;28;20412;-60
2022/08/20 08:00:16;;;;;;;26.00;23.50;;;;;;;;;;4969614;28;20639;-58
2022/08/20 08:02:42;;;;;;;26.03;23.63;;;;;;;;;;4966802;28;20179;-60
2022/08/20 08:05:09;;;;;;;26.53;24.03;;;;;;;;;;4987998;28;20327;-60
2022/08/20 08:07:36;;;;;;;25.17;22.73;;;;;;;;;;4980530;28;20203;-59
2022/08/20 08:10:06;;;;;;;26.30;23.77;;;;;;;;;;4964552;28;20217;-61
2022/08/20 08:12:37;;;;;;;28.30;25.60;;;;;;;;;;4982659;28;20482;-61
2022/08/20 08:15:04;;;;;;;24.07;21.77;;;;;;;;;;4984511;28;20186;-61
2022/08/20 08:17:31;;;;;;;24.43;21.80;;;;;;;;;;4985759;28;20218;-60
2022/08/20 08:19:58;;;;;;;27.50;24.47;;;;;;;;;;4986618;28;20185;-62
2022/08/20 08:22:24;;;;;;;25.70;22.57;;;;;;;;;;4981751;28;20209;-62
2022/08/20 08:24:50;;;;;;;30.37;24.03;;;;;;;;;;4964996;28;20211;-61
2022/08/20 08:27:17;;;;;;;25.83;23.13;;;;;;;;;;4981447;28;20187;-59
2022/08/20 08:29:44;;;;;;;26.83;22.57;;;;;;;;;;4963423;28;20179;-58
2022/08/20 08:32:10;;;;;;;26.03;23.10;;;;;;;;;;4976467;28;20276;-61
2022/08/20 08:34:36;;;;;;;26.43;22.23;;;;;;;;;;4987183;28;20662;-62
2022/08/20 08:37:04;;;;;;;26.77;22.17;;;;;;;;;;4987098;28;20175;-61
2022/08/20 08:39:31;;;;;;;25.53;21.73;;;;;;;;;;4988223;28;20617;-61
2022/08/20 08:41:59;;;;;;;28.93;23.23;;;;;;;;;;4987293;28;20403;-60
2022/08/20 08:44:37;;;;;;;30.17;22.90;;;;;;;;;;4984374;28;20241;-61
2022/08/20 08:47:12;;;;;;;24.57;21.93;;;;;;;;;;4966141;28;20211;-60
2022/08/20 08:49:38;;;;;;;26.23;20.57;;;;;;;;;;4984868;28;20197;-61
2022/08/20 08:52:25;;;;;;;25.30;20.90;;;;;;;;;;4965895;28;20186;-60
2022/08/20 08:54:56;;;;;;;28.53;20.90;;;;;;;;;;4984122;28;20644;-60
2022/08/20 08:57:28;;;;;;;21.97;19.70;;;;;;;;;;4984952;28;20188;-59
2022/08/20 09:00:16;;;;;;;25.73;21.60;;;;;;;;;;4987348;28;20185;-64
2022/08/20 09:02:53;;;;;;;23.30;18.70;;;;;;;;;;4970058;28;20214;-61
2022/08/20 09:05:20;;;;;;;19.63;17.27;;;;;;;;;;4986613;28;20209;-61
2022/08/20 09:07:52;;;;;;;18.70;16.57;;;;;;;;;;4985070;28;20518;-60
2022/08/20 09:10:19;;;;;;;19.43;16.60;;;;;;;;;;4987705;28;20701;-61
2022/08/20 09:12:45;;;;;;;18.53;16.63;;;;;;;;;;4986607;28;20186;-61
2022/08/20 09:15:11;;;;;;;16.67;15.00;;;;;;;;;;4986541;28;20179;-60
2022/08/20 09:17:37;;;;;;;16.87;14.60;;;;;;;;;;4984613;28;20922;-61
2022/08/20 09:20:06;;;;;;;15.13;13.00;;;;;;;;;;4986456;28;20178;-61
2022/08/20 09:22:33;;;;;;;15.87;14.17;;;;;;;;;;4968350;28;20665;-60
2022/08/20 09:25:01;;;;;;;15.80;14.10;;;;;;;;;;4972455;28;20233;-61
2022/08/20 09:27:27;;;;;;;14.77;12.77;;;;;;;;;;4987293;28;20427;-61
2022/08/20 09:29:53;;;;;;;14.10;12.63;;;;;;;;;;4987386;28;20209;-61
2022/08/20 09:32:24;;;;;;;14.37;12.20;;;;;;;;;;4985696;28;20198;-61
2022/08/20 09:34:55;;;;;;;13.53;12.10;;;;;;;;;;4987681;28;20582;-61
2022/08/20 09:37:21;;;;;;;14.47;12.60;;;;;;;;;;4966043;28;20640;-61
2022/08/20 09:39:47;;;;;;;14.63;11.57;;;;;;;;;;4964732;28;20194;-61
2022/08/20 09:42:18;;;;;;;14.67;12.03;;;;;;;;;;4992605;28;20192;-61
2022/08/20 09:44:44;;;;;;;13.43;11.23;;;;;;;;;;4985555;28;20233;-61
2022/08/20 09:47:10;;;;;;;15.07;12.63;;;;;;;;;;4991157;28;20195;-62
2022/08/20 09:49:37;;;;;;;14.77;13.17;;;;;;;;;;4990707;28;20652;-59
2022/08/20 09:52:04;;;;;;;15.40;12.83;;;;;;;;;;4997324;28;20623;-61
2022/08/20 09:54:32;;;;;;;14.57;12.80;;;;;;;;;;4982839;28;20184;-61
2022/08/20 09:57:00;;;;;;;15.67;11.90;;;;;;;;;;4988344;28;20181;-61
2022/08/20 09:59:26;;;;;;;15.57;13.20;;;;;;;;;;4980117;28;20340;-59
2022/08/20 10:01:52;;;;;;;12.83;11.43;;;;;;;;;;4989957;28;20245;-60
2022/08/20 10:04:18;;;;;;;17.53;12.60;;;;;;;;;;4990356;28;20216;-60
2022/08/20 10:06:47;;;;;;;16.17;12.00;;;;;;;;;;4989815;28;20272;-62
2022/08/20 10:09:13;;;;;;;14.50;11.73;;;;;;;;;;4976131;28;20188;-62
2022/08/20 10:11:39;;;;;;;16.17;12.47;;;;;;;;;;4981535;28;20259;-62
2022/08/20 10:14:07;;;;;;;15.17;12.03;;;;;;;;;;4982118;28;20580;-61
2022/08/20 10:16:37;;;;;;;13.00;11.53;;;;;;;;;;4969553;28;20645;-60
2022/08/20 10:19:04;;;;;;;13.70;12.10;;;;;;;;;;4987012;28;20192;-60
2022/08/20 10:21:30;;;;;;;14.27;11.70;;;;;;;;;;4987301;28;20490;-59
2022/08/20 10:23:56;;;;;;;14.53;12.50;;;;;;;;;;4986249;28;20200;-59
2022/08/20 10:26:23;;;;;;;12.20;11.03;;;;;;;;;;4984760;28;20186;-61
2022/08/20 10:28:49;;;;;;;14.10;11.90;;;;;;;;;;4983562;28;20188;-62
2022/08/20 10:31:15;;;;;;;14.67;11.90;;;;;;;;;;4986309;28;20211;-60
2022/08/20 10:33:44;;;;;;;12.80;11.57;;;;;;;;;;4988024;28;20192;-61
2022/08/20 10:36:11;;;;;;;14.80;11.37;;;;;;;;;;4968644;28;20525;-62
2022/08/20 10:38:38;;;;;;;16.60;13.53;;;;;;;;;;4970848;28;20206;-61
2022/08/20 10:41:04;;;;;;;13.93;12.43;;;;;;;;;;4965202;28;20277;-61
2022/08/20 10:43:30;;;;;;;13.83;12.40;;;;;;;;;;4968380;28;20225;-61
2022/08/20 10:45:57;;;;;;;17.30;12.50;;;;;;;;;;4987967;28;20544;-60
2022/08/20 10:48:23;;;;;;;12.77;11.10;;;;;;;;;;4987322;28;20266;-60
2022/08/20 10:50:50;;;;;;;13.00;11.07;;;;;;;;;;4985951;28;20180;-60
2022/08/20 10:53:22;;;;;;;14.37;11.10;;;;;;;;;;4983802;28;20254;-59
2022/08/20 10:55:48;;;;;;;12.40;11.10;;;;;;;;;;4983250;28;20190;-61
2022/08/20 10:58:14;;;;;;;19.07;13.60;;;;;;;;;;4967097;28;20520;-61
2022/08/20 11:00:41;;;;;;;13.03;11.43;;;;;;;;;;4985175;28;20180;-61
2022/08/20 11:03:10;;;;;;;16.40;12.20;;;;;;;;;;4967220;28;20184;-61
2022/08/20 11:05:37;;;;;;;13.07;10.63;;;;;;;;;;4987746;28;20226;-60
2022/08/20 11:08:03;;;;;;;14.73;10.87;;;;;;;;;;4988094;28;20262;-61
2022/08/20 11:10:32;;;;;;;12.37;10.97;;;;;;;;;;4987825;28;20199;-63
2022/08/20 11:12:58;;;;;;;12.43;11.23;;;;;;;;;;4988449;28;20662;-62
2022/08/20 11:15:24;;;;;;;12.20;11.03;;;;;;;;;;4986005;28;20554;-62
2022/08/20 11:17:54;;;;;;;13.37;10.93;;;;;;;;;;4988525;28;20175;-62
2022/08/20 11:20:24;;;;;;;12.77;11.50;;;;;;;;;;4985450;28;20183;-62
2022/08/20 11:22:51;;;;;;;13.43;12.07;;;;;;;;;;4964021;28;20219;-62
2022/08/20 11:25:17;;;;;;;15.13;13.63;;;;;;;;;;4985621;28;20231;-62
2022/08/20 11:27:45;;;;;;;14.03;11.20;;;;;;;;;;4978674;28;20187;-62
2022/08/20 11:30:12;;;;;;;16.27;12.93;;;;;;;;;;4979977;28;20638;-62
2022/08/20 11:32:39;;;;;;;14.67;12.53;;;;;;;;;;4985024;28;20187;-62
2022/08/20 11:35:06;;;;;;;14.00;11.93;;;;;;;;;;4988861;28;20218;-62
2022/08/20 11:37:33;;;;;;;14.33;11.50;;;;;;;;;;4970700;28;20191;-63
2022/08/20 11:39:59;;;;;;;14.13;12.33;;;;;;;;;;4987473;28;20191;-61
2022/08/20 11:42:25;;;;;;;15.70;12.90;;;;;;;;;;4982298;28;20175;-62
2022/08/20 11:44:51;;;;;;;17.07;12.57;;;;;;;;;;4984024;28;20306;-62
2022/08/20 11:47:25;;;;;;;12.27;10.93;;;;;;;;;;4986136;28;20175;-62
2022/08/20 11:50:17;;;;;;;12.77;11.57;;;;;;;;;;4984078;28;20183;-62
2022/08/20 11:52:44;;;;;;;14.57;13.03;;;;;;;;;;4978223;28;20226;-60
2022/08/20 11:55:11;;;;;;;13.03;11.73;;;;;;;;;;4968480;28;20191;-62
2022/08/20 11:57:41;;;;;;;15.87;14.47;;;;;;;;;;4961001;28;20646;-62
2022/08/20 12:00:12;;;;;;;14.27;12.90;;;;;;;;;;4968468;28;20666;-61
2022/08/20 12:02:39;;;;;;;13.67;12.37;;;;;;;;;;4981816;28;20180;-60
2022/08/20 12:05:05;;;;;;;16.97;13.27;;;;;;;;;;4983450;28;20725;-61
2022/08/20 12:07:32;;;;;;;13.73;12.27;;;;;;;;;;4974459;28;20273;-60
2022/08/20 12:10:01;;;;;;;14.10;12.80;;;;;;;;;;4977502;28;20175;-61
2022/08/20 12:12:27;;;;;;;13.27;11.97;;;;;;;;;;4981738;28;20187;-61
2022/08/20 12:14:54;;;;;;;13.80;12.40;;;;;;;;;;4969481;28;20179;-59
2022/08/20 12:17:25;;;;;;;13.43;12.03;;;;;;;;;;4986964;28;20230;-59
2022/08/20 12:19:53;;;;;;;13.30;12.00;;;;;;;;;;4969876;28;20190;-61
2022/08/20 12:22:19;;;;;;;16.40;14.97;;;;;;;;;;4962924;28;20786;-59
2022/08/20 12:24:45;;;;;;;13.30;12.00;;;;;;;;;;4977003;28;20235;-61
2022/08/20 12:27:13;;;;;;;13.17;11.97;;;;;;;;;;4968893;28;20241;-60
2022/08/20 12:29:40;;;;;;;13.67;11.90;;;;;;;;;;4984135;28;20203;-60
2022/08/20 12:32:07;;;;;;;12.23;10.07;;;;;;;;;;4985095;28;20182;-60
2022/08/20 12:34:34;;;;;;;12.97;10.13;;;;;;;;;;4986823;28;20561;-61
2022/08/20 12:37:20;;;;;;;12.33;11.20;;;;;;;;;;4968807;28;20592;-61
2022/08/20 12:39:49;;;;;;;11.10;10.07;;;;;;;;;;4967747;28;20270;-61
2022/08/20 12:42:16;;;;;;;11.10;10.00;;;;;;;;;;4986842;28;20654;-61
2022/08/20 12:44:42;;;;;;;11.93;10.03;;;;;;;;;;4984515;28;20312;-61
2022/08/20 12:47:09;;;;;;;11.40;9.97;;;;;;;;;;4966998;28;20278;-61
2022/08/20 12:49:44;;;;;;;10.33;9.43;;;;;;;;;;4979625;28;20184;-61
2022/08/20 12:52:11;;;;;;;10.67;9.63;;;;;;;;;;4986153;28;20544;-60
2022/08/20 12:54:37;;;;;;;11.40;10.20;;;;;;;;;;4973268;28;20274;-61
2022/08/20 12:57:04;;;;;;;10.47;9.47;;;;;;;;;;4954440;28;20184;-61
2022/08/20 12:59:34;;;;;;;11.27;10.13;;;;;;;;;;4967400;28;20233;-60
2022/08/20 13:02:00;;;;;;;10.23;8.93;;;;;;;;;;4966016;28;20705;-60
2022/08/20 13:04:26;;;;;;;12.67;11.10;;;;;;;;;;4980447;28;20414;-60
2022/08/20 13:06:53;;;;;;;15.53;11.67;;;;;;;;;;4984425;28;20176;-61
2022/08/20 13:09:25;;;;;;;13.80;12.23;;;;;;;;;;4983947;28;20215;-60
2022/08/20 13:11:51;;;;;;;12.53;10.80;;;;;;;;;;4966896;28;20208;-60
2022/08/20 13:14:18;;;;;;;14.20;11.10;;;;;;;;;;4983398;28;20765;-60
2022/08/20 13:16:44;;;;;;;15.73;12.43;;;;;;;;;;4985608;28;20254;-60
2022/08/20 13:19:10;;;;;;;14.57;11.70;;;;;;;;;;4985222;28;20183;-60
2022/08/20 13:21:39;;;;;;;13.80;12.37;;;;;;;;;;4987641;28;20182;-61
2022/08/20 13:24:05;;;;;;;16.63;12.83;;;;;;;;;;4968410;28;20477;-61
2022/08/20 13:26:32;;;;;;;17.73;11.90;;;;;;;;;;4986209;28;20253;-60
2022/08/20 13:28:58;;;;;;;13.60;10.90;;;;;;;;;;4963739;28;20190;-60
2022/08/20 13:31:25;;;;;;;12.77;11.10;;;;;;;;;;4987247;28;20603;-61
2022/08/20 13:33:54;;;;;;;11.47;10.33;;;;;;;;;;4980905;28;20657;-60
2022/08/20 13:36:20;;;;;;;16.43;10.80;;;;;;;;;;4985303;28;20237;-62
2022/08/20 13:38:46;;;;;;;15.50;11.70;;;;;;;;;;4992500;28;20191;-61
2022/08/20 13:41:13;;;;;;;12.27;9.33;;;;;;;;;;4986845;28;20729;-61
2022/08/20 13:43:40;;;;;;;10.27;8.10;;;;;;;;;;4992762;28;20228;-60
2022/08/20 13:46:06;;;;;;;12.13;8.27;;;;;;;;;;4969533;28;20201;-61
2022/08/20 13:48:32;;;;;;;12.00;8.63;;;;;;;;;;4967711;28;20178;-61
2022/08/20 13:50:59;;;;;;;14.03;7.23;;;;;;;;;;4982603;28;20544;-60
2022/08/20 13:53:25;;;;;;;10.37;7.13;;;;;;;;;;4981870;28;20183;-61
2022/08/20 13:55:51;;;;;;;9.87;7.23;;;;;;;;;;4988403;28;20179;-60
2022/08/20 13:58:17;;;;;;;10.00;5.90;;;;;;;;;;4989043;28;20570;-60
2022/08/20 14:00:44;;;;;;;9.60;7.17;;;;;;;;;;4970919;28;20183;-60
2022/08/20 14:03:12;;;;;;;11.10;10.00;;;;;;;;;;4989907;28;20642;-60
2022/08/20 14:05:38;;;;;;;9.47;6.20;;;;;;;;;;4989271;28;20214;-60
2022/08/20 14:08:23;;;;;;;7.77;6.87;;;;;;;;;;4970315;28;20263;-60
2022/08/20 14:10:50;;;;;;;8.53;6.40;;;;;;;;;;4985055;28;20195;-60
2022/08/20 14:13:17;;;;;;;11.13;6.67;;;;;;;;;;4980276;28;20634;-61
2022/08/20 14:15:44;;;;;;;13.80;9.83;;;;;;;;;;4986927;28;20202;-61
2022/08/20 14:18:10;;;;;;;15.87;9.33;;;;;;;;;;4965613;28;20195;-60
2022/08/20 14:20:39;;;;;;;11.63;7.80;;;;;;;;;;4988056;28;20293;-61
2022/08/20 14:23:06;;;;;;;11.93;9.53;;;;;;;;;;4967154;28;20195;-60
2022/08/20 14:25:32;;;;;;;10.23;7.93;;;;;;;;;;4968972;28;20298;-61
2022/08/20 14:27:58;;;;;;;10.65;7.60;;;;;;;;;;4982499;28;20935;-60
2022/08/20 14:30:27;;;;;;;9.37;6.90;;;;;;;;;;4984323;28;20755;-60
2022/08/20 14:32:53;;;;;;;10.00;6.80;;;;;;;;;;4986807;28;20649;-61
2022/08/20 14:35:20;;;;;;;10.87;7.30;;;;;;;;;;4988845;28;20219;-60
2022/08/20 14:37:48;;;;;;;7.53;6.50;;;;;;;;;;4988882;28;20190;-61
2022/08/20 14:40:16;;;;;;;8.87;6.27;;;;;;;;;;4981455;28;20179;-60
2022/08/20 14:42:43;;;;;;;10.10;6.20;;;;;;;;;;4970137;28;20662;-60
2022/08/20 14:45:10;;;;;;;8.63;5.80;;;;;;;;;;4971462;28;20629;-60